createdAt,value
2022-09-13T00:01:32.896Z,17.10
2022-09-13T00:03:59.888Z,17.00
2022-09-13T00:06:26.981Z,17.00
2022-09-13T00:08:54.884Z,17.00
2022-09-13T00:11:25.996Z,17.00
2022-09-13T00:13:53.891Z,17.10
2022-09-13T00:16:25.110Z,17.10
2022-09-13T00:18:53.952Z,17.10
2022-09-13T00:21:23.156Z,17.10
2022-09-13T00:23:53.787Z,17.20
2022-09-13T00:26:27.782Z,17.10
2022-09-13T00:28:58.583Z,17.20
2022-09-13T00:31:28.664Z,17.20
2022-09-13T00:33:58.557Z,17.10
2022-09-13T00:36:25.611Z,17.10
2022-09-13T00:38:52.595Z,17.10
2022-09-13T00:41:21.788Z,17.10
2022-09-13T00:43:51.648Z,17.10
2022-09-13T00:46:43.049Z,17.00
2022-09-13T00:49:38.435Z,17.00
2022-09-13T00:52:13.952Z,17.00
2022-09-13T00:54:56.163Z,17.00
2022-09-13T00:57:25.849Z,17.00
2022-09-13T01:00:23.102Z,17.00
2022-09-13T01:02:58.741Z,17.00
2022-09-13T01:05:34.252Z,17.00
2022-09-13T01:08:02.278Z,16.90
2022-09-13T01:10:31.761Z,17.00
2022-09-13T01:13:26.879Z,17.00
2022-09-13T01:15:54.030Z,17.00
2022-09-13T01:18:21.057Z,17.00
2022-09-13T01:21:12.908Z,17.00
2022-09-13T01:23:39.729Z,17.00
2022-09-13T01:26:46.238Z,17.00
2022-09-13T01:29:56.481Z,17.00
2022-09-13T01:32:58.018Z,17.00
2022-09-13T01:36:05.918Z,16.90
2022-09-13T01:38:48.917Z,16.90
2022-09-13T01:41:35.330Z,16.90
2022-09-13T01:44:17.497Z,16.90
2022-09-13T01:46:47.474Z,16.90
2022-09-13T01:49:45.317Z,16.90
2022-09-13T01:52:32.548Z,17.00
2022-09-13T01:55:40.054Z,17.00
2022-09-13T01:58:51.173Z,17.00
2022-09-13T02:01:40.752Z,17.00
2022-09-13T02:04:18.467Z,17.00
2022-09-13T02:07:08.285Z,17.00
2022-09-13T02:09:42.325Z,17.00
2022-09-13T02:12:21.645Z,17.00
2022-09-13T02:15:17.116Z,17.00
2022-09-13T02:17:52.169Z,17.00
2022-09-13T02:20:26.780Z,17.00
2022-09-13T02:23:02.103Z,17.00
2022-09-13T02:25:33.143Z,17.00
2022-09-13T02:28:07.862Z,17.00
2022-09-13T02:30:40.749Z,17.00
2022-09-13T02:33:18.512Z,16.90
2022-09-13T02:35:56.132Z,17.00
2022-09-13T02:38:36.940Z,16.90
2022-09-13T02:41:27.578Z,16.90
2022-09-13T02:44:07.902Z,16.80
2022-09-13T02:47:00.322Z,16.80
2022-09-13T02:50:06.724Z,16.90
2022-09-13T02:53:12.792Z,16.80
2022-09-13T02:56:09.840Z,16.80
2022-09-13T02:58:42.452Z,16.80
2022-09-13T03:01:09.611Z,16.80
2022-09-13T03:03:36.672Z,16.90
2022-09-13T03:06:03.966Z,16.90
2022-09-13T03:08:31.522Z,16.80
2022-09-13T03:11:27.719Z,16.80
2022-09-13T03:14:09.540Z,16.70
2022-09-13T03:17:13.793Z,16.80
2022-09-13T03:20:11.035Z,16.80
2022-09-13T03:22:40.504Z,16.80
2022-09-13T03:26:13.621Z,16.80
2022-09-13T03:28:51.075Z,16.70
2022-09-13T03:31:36.413Z,16.70
2022-09-13T03:34:29.420Z,16.80
2022-09-13T03:37:07.345Z,16.80
2022-09-13T03:39:46.053Z,16.70
2022-09-13T03:42:31.675Z,16.70
2022-09-13T03:45:01.420Z,16.80
2022-09-13T03:47:32.835Z,16.80
2022-09-13T03:50:01.812Z,16.80
2022-09-13T03:52:29.094Z,16.70
2022-09-13T03:54:56.090Z,16.80
2022-09-13T03:57:23.537Z,16.80
2022-09-13T03:59:56.549Z,16.80
2022-09-13T04:02:26.540Z,16.80
2022-09-13T04:04:53.539Z,16.70
2022-09-13T04:07:23.510Z,16.70
2022-09-13T04:09:50.837Z,16.70
2022-09-13T04:12:19.203Z,16.70
2022-09-13T04:14:46.332Z,16.80
2022-09-13T04:17:14.070Z,16.70
2022-09-13T04:19:41.939Z,16.70
2022-09-13T04:22:09.019Z,16.80
2022-09-13T04:24:36.476Z,16.70
2022-09-13T04:27:05.065Z,16.70
2022-09-13T04:29:33.074Z,16.70
2022-09-13T04:32:00.826Z,16.70
2022-09-13T04:34:28.155Z,16.70
2022-09-13T04:36:55.439Z,16.70
2022-09-13T04:39:23.826Z,16.70
2022-09-13T04:41:54.524Z,16.70
2022-09-13T04:44:23.100Z,16.70
2022-09-13T04:46:50.935Z,16.60
2022-09-13T04:49:20.179Z,16.60
2022-09-13T04:51:48.177Z,16.50
2022-09-13T04:54:16.442Z,16.50
2022-09-13T04:56:47.240Z,16.40
2022-09-13T04:59:14.423Z,16.40
2022-09-13T05:01:41.936Z,16.40
2022-09-13T05:04:10.328Z,16.40
2022-09-13T05:06:37.348Z,16.40
2022-09-13T05:09:05.687Z,16.40
2022-09-13T05:11:34.281Z,16.40
2022-09-13T05:14:01.675Z,16.40
2022-09-13T05:16:32.666Z,16.40
2022-09-13T05:19:01.123Z,16.50
2022-09-13T05:21:28.606Z,16.50
2022-09-13T05:23:57.072Z,16.50
2022-09-13T05:26:27.058Z,16.50
2022-09-13T05:28:54.114Z,16.40
2022-09-13T05:31:29.133Z,16.40
2022-09-13T05:34:03.416Z,16.40
2022-09-13T05:36:30.622Z,16.50
2022-09-13T05:39:25.913Z,16.50
2022-09-13T05:41:46.286Z,16.50
2022-09-13T05:44:13.979Z,16.60
2022-09-13T05:46:42.867Z,16.60
2022-09-13T05:49:12.645Z,16.70
2022-09-13T05:51:40.067Z,16.70
2022-09-13T05:54:07.060Z,16.70
2022-09-13T05:56:34.203Z,16.80
2022-09-13T05:59:01.307Z,16.80
2022-09-13T06:01:29.676Z,16.90
2022-09-13T06:03:59.367Z,16.90
2022-09-13T06:06:27.088Z,17.00
2022-09-13T06:08:56.022Z,17.00
2022-09-13T06:11:24.736Z,17.00
2022-09-13T06:13:51.787Z,17.10
2022-09-13T06:16:18.827Z,17.10
2022-09-13T06:18:46.105Z,17.10
2022-09-13T06:21:24.644Z,17.10
2022-09-13T06:23:54.781Z,17.10
2022-09-13T06:26:25.285Z,17.10
2022-09-13T06:28:57.116Z,17.20
2022-09-13T06:31:27.438Z,17.30
2022-09-13T06:34:02.526Z,17.30
2022-09-13T06:36:31.377Z,17.40
2022-09-13T06:39:00.720Z,17.40
2022-09-13T06:41:28.318Z,17.50
2022-09-13T06:43:59.235Z,17.50
2022-09-13T06:46:29.957Z,17.60
2022-09-13T06:49:05.120Z,17.70
2022-09-13T06:51:34.666Z,17.70
2022-09-13T06:54:04.207Z,17.80
2022-09-13T06:56:34.979Z,17.80
2022-09-13T06:59:06.289Z,17.90
2022-09-13T07:01:43.349Z,18.00
2022-09-13T07:04:21.399Z,18.00
2022-09-13T07:06:49.986Z,18.20
2022-09-13T07:09:21.728Z,18.20
2022-09-13T07:11:51.888Z,18.30
2022-09-13T07:14:22.664Z,18.30
2022-09-13T07:16:51.760Z,18.40
2022-09-13T07:19:26.427Z,18.50
2022-09-13T07:21:55.141Z,18.60
2022-09-13T07:24:23.193Z,18.70
2022-09-13T07:26:50.924Z,18.90
2022-09-13T07:29:23.935Z,18.90
2022-09-13T07:31:54.586Z,19.00
2022-09-13T07:34:24.971Z,19.10
2022-09-13T07:36:52.836Z,19.10
2022-09-13T07:39:22.992Z,19.10
2022-09-13T07:41:51.649Z,19.20
2022-09-13T07:44:18.693Z,19.20
2022-09-13T07:46:45.787Z,19.30
2022-09-13T07:49:18.952Z,19.30
2022-09-13T07:51:48.807Z,19.40
2022-09-13T07:54:18.940Z,19.50
2022-09-13T07:56:46.625Z,19.70
2022-09-13T07:59:16.680Z,19.60
2022-09-13T08:01:50.239Z,19.70
2022-09-13T08:04:21.251Z,19.80
2022-09-13T08:06:48.647Z,19.90
2022-09-13T08:09:16.436Z,19.90
2022-09-13T08:11:47.362Z,20.10
2022-09-13T08:14:17.338Z,20.20
2022-09-13T08:16:44.347Z,20.40
2022-09-13T08:19:16.234Z,20.40
2022-09-13T08:21:44.759Z,20.60
2022-09-13T08:24:21.514Z,20.50
2022-09-13T08:26:49.122Z,20.50
2022-09-13T08:29:16.837Z,20.70
2022-09-13T08:31:45.087Z,20.80
2022-09-13T08:34:16.653Z,20.90
2022-09-13T08:36:44.142Z,21.00
2022-09-13T08:39:13.678Z,21.10
2022-09-13T08:41:42.123Z,21.00
2022-09-13T08:44:41.150Z,21.20
2022-09-13T08:47:52.395Z,21.30
2022-09-13T08:50:38.114Z,21.40
2022-09-13T08:53:26.339Z,21.60
2022-09-13T08:56:09.469Z,21.80
2022-09-13T08:59:04.118Z,21.60
2022-09-13T09:02:21.011Z,21.50
2022-09-13T09:05:20.393Z,21.60
2022-09-13T09:08:43.209Z,21.80
2022-09-13T09:11:45.250Z,21.70
2022-09-13T09:14:37.953Z,21.80
2022-09-13T09:17:14.212Z,21.80
2022-09-13T09:19:46.642Z,22.00
2022-09-13T09:22:21.979Z,22.20
2022-09-13T09:24:54.886Z,22.10
2022-09-13T09:27:23.252Z,22.10
2022-09-13T09:29:54.901Z,22.20
2022-09-13T09:32:47.627Z,22.20
2022-09-13T09:36:01.641Z,22.50
2022-09-13T09:38:42.835Z,22.40
2022-09-13T09:41:25.728Z,22.70
2022-09-13T09:44:17.134Z,22.60
2022-09-13T09:46:50.847Z,22.60
2022-09-13T09:50:09.979Z,22.80
2022-09-13T09:53:01.751Z,22.90
2022-09-13T09:56:00.611Z,22.80
2022-09-13T09:58:43.609Z,23.20
2022-09-13T10:01:25.904Z,23.20
2022-09-13T10:04:13.181Z,23.00
2022-09-13T10:06:42.138Z,23.20
2022-09-13T10:09:22.275Z,23.20
2022-09-13T10:12:00.107Z,23.20
2022-09-13T10:14:47.387Z,23.30
2022-09-13T10:17:30.027Z,23.20
2022-09-13T10:20:01.580Z,23.20
2022-09-13T10:22:31.727Z,23.20
2022-09-13T10:25:27.237Z,23.00
2022-09-13T10:27:58.145Z,23.20
2022-09-13T10:30:54.673Z,23.30
2022-09-13T10:34:20.578Z,23.20
2022-09-13T10:37:04.314Z,23.30
2022-09-13T10:39:36.573Z,23.30
2022-09-13T10:42:08.015Z,23.30
2022-09-13T10:44:53.308Z,23.50
2022-09-13T10:47:35.772Z,23.50
2022-09-13T10:50:21.613Z,23.60
2022-09-13T10:52:54.375Z,23.90
2022-09-13T10:55:31.379Z,23.70
2022-09-13T10:58:07.705Z,24.10
2022-09-13T11:01:14.302Z,23.80
2022-09-13T11:04:12.164Z,24.00
2022-09-13T11:07:08.055Z,24.00
2022-09-13T11:10:02.122Z,24.30
2022-09-13T11:12:46.541Z,24.30
2022-09-13T11:16:08.705Z,24.30
2022-09-13T11:19:03.479Z,24.50
2022-09-13T11:21:42.298Z,24.60
2022-09-13T11:24:35.037Z,24.50
2022-09-13T11:27:27.981Z,24.60
2022-09-13T11:30:25.371Z,24.90
2022-09-13T11:33:15.370Z,24.50
2022-09-13T11:36:20.678Z,24.90
2022-09-13T11:39:13.555Z,25.10
2022-09-13T11:41:53.038Z,25.00
2022-09-13T11:44:56.210Z,25.20
2022-09-13T11:47:44.335Z,25.00
2022-09-13T11:50:25.935Z,24.70
2022-09-13T11:53:41.110Z,24.90
2022-09-13T11:56:17.376Z,24.90
2022-09-13T11:59:34.833Z,24.70
2022-09-13T12:02:15.121Z,24.90
2022-09-13T12:05:22.998Z,24.90
2022-09-13T12:08:05.262Z,24.60
2022-09-13T12:10:51.811Z,24.30
2022-09-13T12:13:46.348Z,24.40
2022-09-13T12:16:48.678Z,24.60
2022-09-13T12:19:46.774Z,24.60
2022-09-13T12:22:15.683Z,24.70
2022-09-13T12:24:55.142Z,25.00
2022-09-13T12:27:55.544Z,25.30
2022-09-13T12:30:37.537Z,25.50
2022-09-13T12:33:06.706Z,25.70
2022-09-13T12:35:47.969Z,25.90
2022-09-13T12:38:41.995Z,25.40
2022-09-13T12:41:43.975Z,25.60
2022-09-13T12:44:52.771Z,25.40
2022-09-13T12:47:48.798Z,25.50
2022-09-13T12:50:44.557Z,25.20
2022-09-13T12:53:44.114Z,25.20
2022-09-13T12:56:41.199Z,25.00
2022-09-13T12:59:25.806Z,24.80
2022-09-13T13:01:53.841Z,24.90
2022-09-13T13:04:35.953Z,25.10
2022-09-13T13:07:18.914Z,25.30
2022-09-13T13:09:53.030Z,25.20
2022-09-13T13:12:39.774Z,25.40
2022-09-13T13:15:26.797Z,25.30
2022-09-13T13:17:57.757Z,25.40
2022-09-13T13:20:42.895Z,25.50
2022-09-13T13:23:35.240Z,25.40
2022-09-13T13:26:05.690Z,25.50
2022-09-13T13:28:45.165Z,25.60
2022-09-13T13:31:34.357Z,25.70
2022-09-13T13:34:16.569Z,25.90
2022-09-13T13:36:46.670Z,25.90
2022-09-13T13:42:31.690Z,25.40
2022-09-13T13:45:29.466Z,25.60
2022-09-13T13:48:12.162Z,25.50
2022-09-13T13:51:19.355Z,25.20
2022-09-13T13:54:05.870Z,25.10
2022-09-13T13:56:47.158Z,25.20
2022-09-13T13:59:23.335Z,25.30
2022-09-13T14:01:56.095Z,25.30
2022-09-13T14:05:09.498Z,25.10
2022-09-13T14:08:05.313Z,25.10
2022-09-13T14:11:06.240Z,25.00
2022-09-13T14:13:39.223Z,25.20
2022-09-13T14:16:42.870Z,25.30
2022-09-13T14:19:32.207Z,25.50
2022-09-13T14:22:25.315Z,25.30
2022-09-13T14:24:58.090Z,25.20
2022-09-13T14:27:34.048Z,25.20
2022-09-13T14:30:15.942Z,25.20
2022-09-13T14:32:47.664Z,25.20
2022-09-13T14:35:31.690Z,25.00
2022-09-13T14:38:12.308Z,25.20
2022-09-13T14:40:39.572Z,25.00
2022-09-13T14:43:22.852Z,24.80
2022-09-13T14:46:02.897Z,24.70
2022-09-13T14:48:47.121Z,24.80
2022-09-13T14:51:44.494Z,24.90
2022-09-13T14:54:26.953Z,24.90
2022-09-13T14:56:58.104Z,25.00
2022-09-13T14:59:36.161Z,24.80
2022-09-13T15:02:22.639Z,24.80
2022-09-13T15:04:59.388Z,24.60
2022-09-13T15:07:34.241Z,24.70
2022-09-13T15:10:16.023Z,24.70
2022-09-13T15:13:10.688Z,24.60
2022-09-13T15:15:45.838Z,24.50
2022-09-13T15:18:15.709Z,24.50
2022-09-13T15:21:06.389Z,24.40
2022-09-13T15:23:41.444Z,24.40
2022-09-13T15:26:28.110Z,24.40
2022-09-13T15:28:59.097Z,24.40
2022-09-13T15:31:32.869Z,24.40
2022-09-13T15:34:23.906Z,24.50
2022-09-13T15:37:13.980Z,24.30
2022-09-13T15:39:49.698Z,24.50
2022-09-13T15:42:17.929Z,24.40
2022-09-13T15:44:46.187Z,24.40
2022-09-13T15:47:19.174Z,24.40
2022-09-13T15:49:52.755Z,24.50
2022-09-13T15:52:21.135Z,24.30
2022-09-13T15:54:50.720Z,24.10
2022-09-13T15:57:29.771Z,24.20
2022-09-13T16:00:02.744Z,24.30
2022-09-13T16:02:33.644Z,24.10
2022-09-13T16:05:00.745Z,24.20
2022-09-13T16:07:27.866Z,24.30
2022-09-13T16:09:54.933Z,24.30
2022-09-13T16:12:24.543Z,24.10
2022-09-13T16:14:51.913Z,24.10
2022-09-13T16:17:29.620Z,24.00
2022-09-13T16:19:56.697Z,24.10
2022-09-13T16:22:25.273Z,23.70
2022-09-13T16:24:52.557Z,23.90
2022-09-13T16:27:20.777Z,23.80
2022-09-13T16:29:48.225Z,23.80
2022-09-13T16:32:15.729Z,23.70
2022-09-13T16:34:42.765Z,23.70
2022-09-13T16:37:18.282Z,23.70
2022-09-13T16:39:46.046Z,23.50
2022-09-13T16:42:15.556Z,23.50
2022-09-13T16:44:42.700Z,23.50
2022-09-13T16:47:10.290Z,23.40
2022-09-13T16:49:37.416Z,23.40
2022-09-13T16:52:04.670Z,23.40
2022-09-13T16:54:31.725Z,23.30
2022-09-13T16:56:59.174Z,23.20
2022-09-13T16:59:26.236Z,23.10
2022-09-13T17:01:53.323Z,23.00
2022-09-13T17:04:22.228Z,23.00
2022-09-13T17:06:49.392Z,22.90
2022-09-13T17:09:17.285Z,22.80
2022-09-13T17:11:45.623Z,22.80
2022-09-13T17:14:17.437Z,22.80
2022-09-13T17:16:49.761Z,22.70
2022-09-13T17:19:21.843Z,22.60
2022-09-13T17:21:49.655Z,22.60
2022-09-13T17:24:17.007Z,22.50
2022-09-13T17:26:46.658Z,22.50
2022-09-13T17:29:14.743Z,22.50
2022-09-13T17:31:43.433Z,22.50
2022-09-13T17:34:12.263Z,22.30
2022-09-13T17:36:40.527Z,22.40
2022-09-13T17:39:07.951Z,22.30
2022-09-13T17:41:36.309Z,22.40
2022-09-13T17:44:04.072Z,22.30
2022-09-13T17:46:31.149Z,22.20
2022-09-13T17:48:59.882Z,22.20
2022-09-13T17:51:33.160Z,22.10
2022-09-13T17:54:04.867Z,22.10
2022-09-13T17:56:36.201Z,21.90
2022-09-13T17:59:21.426Z,21.90
2022-09-13T18:01:52.174Z,21.90
2022-09-13T18:04:22.638Z,21.90
2022-09-13T18:06:52.929Z,21.90
2022-09-13T18:09:21.132Z,21.80
2022-09-13T18:11:48.165Z,21.80
2022-09-13T18:14:18.034Z,21.70
2022-09-13T18:16:45.852Z,21.70
2022-09-13T18:19:13.683Z,21.70
2022-09-13T18:21:40.740Z,21.70
2022-09-13T18:24:08.206Z,21.60
2022-09-13T18:26:35.978Z,21.50
2022-09-13T18:29:06.929Z,21.50
2022-09-13T18:31:36.287Z,21.50
2022-09-13T18:34:08.063Z,21.40
2022-09-13T18:36:36.843Z,21.30
2022-09-13T18:39:06.599Z,21.20
2022-09-13T18:41:40.692Z,21.20
2022-09-13T18:44:10.071Z,21.20
2022-09-13T18:46:38.309Z,21.10
2022-09-13T18:49:07.321Z,21.10
2022-09-13T18:51:42.215Z,21.10
2022-09-13T18:54:14.974Z,21.00
2022-09-13T18:56:42.661Z,20.90
2022-09-13T18:59:12.080Z,21.00
2022-09-13T19:01:43.278Z,20.90
2022-09-13T19:04:23.660Z,20.90
2022-09-13T19:06:58.926Z,20.70
2022-09-13T19:09:26.745Z,20.70
2022-09-13T19:11:55.502Z,20.60
2022-09-13T19:14:28.638Z,20.50
2022-09-13T19:17:00.495Z,20.50
2022-09-13T19:19:28.021Z,20.30
2022-09-13T19:21:56.154Z,20.20
2022-09-13T19:24:24.175Z,20.20
2022-09-13T19:26:53.046Z,20.20
2022-09-13T19:29:23.784Z,20.10
2022-09-13T19:31:52.888Z,19.90
2022-09-13T19:34:22.489Z,19.90
2022-09-13T19:36:57.473Z,19.90
2022-09-13T19:39:29.146Z,19.90
2022-09-13T19:42:00.658Z,19.90
2022-09-13T19:44:28.753Z,19.80
2022-09-13T19:47:23.815Z,19.80
2022-09-13T19:49:43.528Z,19.70
2022-09-13T19:52:10.537Z,19.60
2022-09-13T19:54:37.490Z,19.60
2022-09-13T19:57:06.359Z,19.60
2022-09-13T19:59:34.498Z,19.60
2022-09-13T20:02:01.895Z,19.50
2022-09-13T20:04:30.185Z,19.40
2022-09-13T20:06:57.322Z,19.40
2022-09-13T20:09:24.671Z,19.40
2022-09-13T20:11:53.007Z,19.30
2022-09-13T20:14:20.545Z,19.30
2022-09-13T20:16:48.098Z,19.20
2022-09-13T20:22:09.821Z,19.20
2022-09-13T20:24:37.403Z,19.10
2022-09-13T20:27:04.930Z,19.10
2022-09-13T20:29:32.048Z,19.00
2022-09-13T20:31:59.864Z,19.00
2022-09-13T20:34:27.281Z,19.00
2022-09-13T20:36:54.497Z,19.00
2022-09-13T20:39:21.747Z,19.00
2022-09-13T20:41:50.154Z,18.90
2022-09-13T20:44:17.537Z,18.90
2022-09-13T20:46:44.612Z,18.80
2022-09-13T20:49:11.842Z,18.90
2022-09-13T20:51:39.186Z,18.80
2022-09-13T20:54:07.076Z,18.90
2022-09-13T20:56:35.523Z,18.70
2022-09-13T20:59:04.108Z,18.80
2022-09-13T21:01:32.367Z,18.90
2022-09-13T21:04:00.416Z,18.80
2022-09-13T21:06:31.815Z,18.70
2022-09-13T21:09:02.771Z,18.70
2022-09-13T21:11:35.830Z,18.60
2022-09-13T21:14:07.998Z,18.60
2022-09-13T21:16:39.470Z,18.50
2022-09-13T21:19:07.918Z,18.50
2022-09-13T21:21:40.452Z,18.50
2022-09-13T21:24:12.391Z,18.40
2022-09-13T21:26:42.481Z,18.40
2022-09-13T21:29:11.899Z,18.20
2022-09-13T21:31:40.171Z,18.20
2022-09-13T21:34:16.574Z,18.20
2022-09-13T21:36:45.780Z,18.00
2022-09-13T21:39:16.282Z,18.00
2022-09-13T21:41:43.993Z,17.90
2022-09-13T21:44:11.475Z,17.90
2022-09-13T21:46:40.475Z,17.90
2022-09-13T21:49:11.480Z,17.90
2022-09-13T21:51:45.203Z,17.90
2022-09-13T21:54:15.721Z,17.80
2022-09-13T21:56:51.751Z,17.80
2022-09-13T21:59:21.447Z,17.90
2022-09-13T22:01:51.788Z,17.80
2022-09-13T22:04:22.723Z,17.80
2022-09-13T22:06:53.442Z,17.80
2022-09-13T22:09:23.389Z,17.90
2022-09-13T22:11:50.640Z,17.70
2022-09-13T22:14:21.849Z,17.80
2022-09-13T22:16:50.869Z,17.90
2022-09-13T22:19:26.343Z,17.80
2022-09-13T22:21:58.900Z,17.80
2022-09-13T22:24:32.238Z,17.80
2022-09-13T22:26:59.632Z,17.80
2022-09-13T22:29:26.926Z,17.90
2022-09-13T22:31:54.495Z,17.80
2022-09-13T22:34:24.941Z,17.90
2022-09-13T22:36:54.461Z,17.80
2022-09-13T22:39:21.547Z,17.80
2022-09-13T22:41:48.554Z,17.80
2022-09-13T22:44:15.542Z,17.90
2022-09-13T22:46:45.477Z,17.90
2022-09-13T22:49:18.361Z,17.80
2022-09-13T22:51:47.024Z,17.70
2022-09-13T22:54:16.160Z,17.70
2022-09-13T22:56:43.453Z,17.70
2022-09-13T22:59:20.789Z,17.70
2022-09-13T23:01:48.868Z,17.70
2022-09-13T23:04:16.481Z,17.60
2022-09-13T23:06:43.999Z,17.50
2022-09-13T23:09:17.992Z,17.50
2022-09-13T23:11:46.864Z,17.50
2022-09-13T23:14:16.696Z,17.40
2022-09-13T23:16:50.496Z,17.30
2022-09-13T23:19:20.164Z,17.30
2022-09-13T23:21:47.214Z,17.30
2022-09-13T23:24:18.104Z,17.30
2022-09-13T23:26:46.385Z,17.30
2022-09-13T23:29:19.800Z,17.20
2022-09-13T23:31:48.352Z,17.20
2022-09-13T23:34:16.112Z,17.10
2022-09-13T23:36:48.196Z,17.00
2022-09-13T23:39:18.093Z,16.90
2022-09-13T23:41:48.070Z,16.90
2022-09-13T23:44:15.532Z,16.90
2022-09-13T23:46:43.071Z,16.80
2022-09-13T23:49:10.155Z,16.80
2022-09-13T23:51:37.351Z,16.70
2022-09-13T23:54:04.834Z,16.70
2022-09-13T23:56:33.568Z,16.50
2022-09-13T23:59:02.785Z,16.50
